createdAt,value
2023-04-02T00:00:00.330Z,664.7
2023-04-02T00:01:02.520Z,665.3
2023-04-02T00:02:04.582Z,665.1
2023-04-02T00:03:07.269Z,664.6
2023-04-02T00:04:09.881Z,665
2023-04-02T00:05:12.070Z,664.8
2023-04-02T00:06:14.144Z,664.9
2023-04-02T00:07:16.036Z,665.1
2023-04-02T00:08:17.920Z,664.4
2023-04-02T00:09:19.760Z,664.3
2023-04-02T00:10:21.866Z,664.1
2023-04-02T00:11:23.963Z,664.2
2023-04-02T00:12:25.855Z,664.5
2023-04-02T00:13:27.949Z,664.3
2023-04-02T00:14:29.845Z,664
2023-04-02T00:15:31.787Z,664.4
2023-04-02T00:16:34.024Z,664.5
2023-04-02T00:17:36.139Z,663.9
2023-04-02T00:18:38.040Z,664.2
2023-04-02T00:19:40.080Z,664.4
2023-04-02T00:20:42.164Z,663.9
2023-04-02T00:21:44.254Z,663.8
2023-04-02T00:22:46.233Z,664.4
2023-04-02T00:23:48.419Z,665.3
2023-04-02T00:24:50.543Z,664.4
2023-04-02T00:25:52.653Z,665.2
2023-04-02T00:26:54.748Z,664.7
2023-04-02T00:27:56.845Z,664.9
2023-04-02T00:28:58.958Z,664.6
2023-04-02T00:30:01.102Z,665.1
2023-04-02T00:31:03.202Z,665
2023-04-02T00:32:05.741Z,664.6
2023-04-02T00:33:08.029Z,664.6
2023-04-02T00:34:09.569Z,664.6
2023-04-02T00:35:11.747Z,664.8
2023-04-02T00:36:13.867Z,664
2023-04-02T00:37:15.937Z,664
2023-04-02T00:38:18.019Z,664.3
2023-04-02T00:39:20.110Z,664
2023-04-02T00:40:21.983Z,664.2
2023-04-02T00:41:23.970Z,664.5
2023-04-02T00:42:26.084Z,664
2023-04-02T00:43:28.218Z,664.6
2023-04-02T00:44:30.326Z,664.5
2023-04-02T00:45:32.701Z,664.3
2023-04-02T00:46:35.082Z,664.1
2023-04-02T00:47:36.828Z,664
2023-04-02T00:48:38.938Z,664.5
2023-04-02T00:49:41.027Z,664.7
2023-04-02T00:50:43.233Z,664
2023-04-02T00:51:44.933Z,664
2023-04-02T00:52:47.062Z,664.3
2023-04-02T00:53:48.953Z,663.3
2023-04-02T00:54:50.885Z,663.9
2023-04-02T00:55:52.969Z,663.6
2023-04-02T00:56:55.173Z,664.1
2023-04-02T00:57:57.373Z,663.9
2023-04-02T00:58:59.494Z,663.7
2023-04-02T01:00:01.433Z,663.8
2023-04-02T01:01:04.130Z,664.2
2023-04-02T01:02:06.326Z,663.6
2023-04-02T01:03:09.642Z,663.7
2023-04-02T01:04:11.594Z,663.7
2023-04-02T01:05:13.966Z,663
2023-04-02T01:06:16.071Z,663.3
2023-04-02T01:07:18.268Z,663.2
2023-04-02T01:08:20.258Z,662.7
2023-04-02T01:09:22.359Z,663.1
2023-04-02T01:10:24.717Z,662.9
2023-04-02T01:11:26.945Z,662.6
2023-04-02T01:12:28.835Z,662.5
2023-04-02T01:13:30.727Z,663.2
2023-04-02T01:14:32.811Z,662.3
2023-04-02T01:15:36.515Z,662.8
2023-04-02T01:16:38.773Z,662.8
2023-04-02T01:17:41.041Z,662.4
2023-04-02T01:18:42.952Z,663.1
2023-04-02T01:19:44.856Z,663
2023-04-02T01:20:47.101Z,663
2023-04-02T01:21:49.288Z,662.9
2023-04-02T01:22:51.198Z,663
2023-04-02T01:23:53.298Z,663.1
2023-04-02T01:24:55.395Z,663.1
2023-04-02T01:25:57.256Z,663.1
2023-04-02T01:26:59.299Z,662.9
2023-04-02T01:28:01.414Z,662.6
2023-04-02T01:29:03.511Z,662.5
2023-04-02T01:30:05.488Z,662.6
2023-04-02T01:31:07.937Z,663.1
2023-04-02T01:32:09.999Z,662.3
2023-04-02T01:33:11.960Z,662.5
2023-04-02T01:34:13.672Z,662.8
2023-04-02T01:35:15.777Z,663.3
2023-04-02T01:36:17.770Z,663.3
2023-04-02T01:37:20.041Z,663.6
2023-04-02T01:38:22.123Z,663.4
2023-04-02T01:39:24.200Z,663.3
2023-04-02T01:40:26.283Z,662.9
2023-04-02T01:41:28.393Z,663
2023-04-02T01:42:30.469Z,663
2023-04-02T01:43:32.352Z,663.4
2023-04-02T01:44:34.425Z,663.3
2023-04-02T01:45:38.154Z,663
2023-04-02T01:46:40.436Z,663
2023-04-02T01:47:42.835Z,662.8
2023-04-02T01:48:44.780Z,662.6
2023-04-02T01:49:46.663Z,662.1
2023-04-02T01:50:48.750Z,662
2023-04-02T01:51:50.635Z,661.7
2023-04-02T01:52:52.853Z,661.6
2023-04-02T01:53:54.947Z,661.6
2023-04-02T01:54:57.028Z,661.7
2023-04-02T01:55:59.110Z,661.3
2023-04-02T01:57:01.180Z,661.5
2023-04-02T01:58:03.051Z,661.7
2023-04-02T01:59:05.147Z,661.3
2023-04-02T02:00:07.286Z,661.4
2023-04-02T02:01:09.603Z,661.4
2023-04-02T02:02:11.605Z,661.5
2023-04-02T02:03:13.636Z,660.6
2023-04-02T02:04:15.786Z,661
2023-04-02T02:05:17.856Z,661.1
2023-04-02T02:06:19.755Z,660.8
2023-04-02T02:07:21.649Z,661
2023-04-02T02:08:23.807Z,661.2
2023-04-02T02:09:25.996Z,661
2023-04-02T02:10:27.750Z,661
2023-04-02T02:11:29.850Z,661.2
2023-04-02T02:12:31.948Z,660.4
2023-04-02T02:13:33.685Z,660.7
2023-04-02T02:14:35.784Z,660.5
2023-04-02T02:15:38.622Z,660.8
2023-04-02T02:16:40.577Z,660.3
2023-04-02T02:17:42.731Z,660.2
2023-04-02T02:18:44.642Z,660.5
2023-04-02T02:19:46.357Z,659.8
2023-04-02T02:20:48.246Z,660.3
2023-04-02T02:21:50.201Z,659.6
2023-04-02T02:22:52.324Z,660
2023-04-02T02:23:54.592Z,659.9
2023-04-02T02:24:56.476Z,659.7
2023-04-02T02:25:58.573Z,659.2
2023-04-02T02:27:00.492Z,659.5
2023-04-02T02:28:02.600Z,659.7
2023-04-02T02:29:04.744Z,659.5
2023-04-02T02:30:06.450Z,659.2
2023-04-02T02:31:08.352Z,658.7
2023-04-02T02:32:10.873Z,659.1
2023-04-02T02:33:12.597Z,658.7
2023-04-02T02:34:14.279Z,658.7
2023-04-02T02:35:16.220Z,658.6
2023-04-02T02:36:18.269Z,658.8
2023-04-02T02:37:20.378Z,658.6
2023-04-02T02:38:22.505Z,658.2
2023-04-02T02:39:24.546Z,658.5
2023-04-02T02:40:26.131Z,658.6
2023-04-02T02:41:28.229Z,658.2
2023-04-02T02:42:30.134Z,658.2
2023-04-02T02:43:32.030Z,658.3
2023-04-02T02:44:34.157Z,658
2023-04-02T02:45:37.843Z,658.2
2023-04-02T02:46:40.146Z,657.6
2023-04-02T02:47:42.278Z,658.3
2023-04-02T02:48:44.376Z,657.7
2023-04-02T02:49:46.674Z,657.6
2023-04-02T02:50:48.804Z,657.6
2023-04-02T02:51:50.954Z,657.8
2023-04-02T02:52:53.039Z,657.4
2023-04-02T02:53:55.142Z,657.5
2023-04-02T02:54:57.338Z,657.3
2023-04-02T02:55:59.443Z,657
2023-04-02T02:57:01.579Z,657.3
2023-04-02T02:58:03.659Z,657.1
2023-04-02T02:59:05.552Z,656.9
2023-04-02T03:00:07.474Z,657.1
2023-04-02T03:01:09.953Z,656.9
2023-04-02T03:02:12.178Z,656.6
2023-04-02T03:03:15.134Z,656.9
2023-04-02T03:04:17.633Z,656.8
2023-04-02T03:05:19.845Z,656.8
2023-04-02T03:06:22.178Z,656.6
2023-04-02T03:07:24.243Z,656.6
2023-04-02T03:08:26.165Z,656.4
2023-04-02T03:09:27.846Z,656.1
2023-04-02T03:10:29.852Z,656.3
2023-04-02T03:11:31.806Z,656.3
2023-04-02T03:12:33.560Z,655.6
2023-04-02T03:13:35.146Z,656
2023-04-02T03:14:37.104Z,656.1
2023-04-02T03:15:39.940Z,655.9
2023-04-02T03:16:41.838Z,655.7
2023-04-02T03:17:44.150Z,655.3
2023-04-02T03:18:46.099Z,655.4
2023-04-02T03:19:48.038Z,655.7
2023-04-02T03:20:49.929Z,655.6
2023-04-02T03:21:51.888Z,656
2023-04-02T03:22:53.848Z,655.7
2023-04-02T03:23:55.947Z,655.7
2023-04-02T03:24:58.038Z,655.5
2023-04-02T03:26:00.226Z,655.5
2023-04-02T03:27:02.340Z,655.2
2023-04-02T03:28:04.323Z,655.3
2023-04-02T03:29:06.483Z,655.6
2023-04-02T03:30:08.376Z,655.3
2023-04-02T03:31:10.598Z,655
2023-04-02T03:32:12.569Z,655.5
2023-04-02T03:33:14.671Z,655.2
2023-04-02T03:34:16.560Z,655
2023-04-02T03:35:18.652Z,654.7
2023-04-02T03:36:20.969Z,654.5
2023-04-02T03:37:23.216Z,654.3
2023-04-02T03:38:25.293Z,654.3
2023-04-02T03:39:27.058Z,654.4
2023-04-02T03:40:29.142Z,654.5
2023-04-02T03:41:31.365Z,654.1
2023-04-02T03:42:33.444Z,654.1
2023-04-02T03:43:35.167Z,653.8
2023-04-02T03:44:37.061Z,654
2023-04-02T03:45:39.229Z,653.7
2023-04-02T03:46:41.556Z,653.8
2023-04-02T03:47:43.523Z,653.6
2023-04-02T03:48:45.604Z,653.3
2023-04-02T03:49:47.505Z,653.5
2023-04-02T03:50:49.592Z,653.3
2023-04-02T03:51:51.665Z,652.9
2023-04-02T03:52:53.789Z,652.7
2023-04-02T03:53:55.654Z,653
2023-04-02T03:54:57.594Z,653.1
2023-04-02T03:55:59.494Z,653.2
2023-04-02T03:57:01.872Z,653
2023-04-02T03:58:04.073Z,652.7
2023-04-02T03:59:06.170Z,652.9
2023-04-02T04:00:08.124Z,652.6
2023-04-02T04:01:10.252Z,652.3
2023-04-02T04:02:12.334Z,652.5
2023-04-02T04:03:14.634Z,652.4
2023-04-02T04:04:16.999Z,652.3
2023-04-02T04:05:19.006Z,651.9
2023-04-02T04:06:22.617Z,651.7
2023-04-02T04:07:24.703Z,651.7
2023-04-02T04:08:26.846Z,651.6
2023-04-02T04:09:28.966Z,651.6
2023-04-02T04:10:31.044Z,651.7
2023-04-02T04:11:32.931Z,652.1
2023-04-02T04:12:35.096Z,651.7
2023-04-02T04:13:37.033Z,651.6
2023-04-02T04:14:39.114Z,651.6
2023-04-02T04:15:41.022Z,651.5
2023-04-02T04:16:43.006Z,651.6
2023-04-02T04:17:45.247Z,651.8
2023-04-02T04:18:47.369Z,651.6
2023-04-02T04:19:49.242Z,651.5
2023-04-02T04:20:51.348Z,651.7
2023-04-02T04:21:53.436Z,651.6
2023-04-02T04:22:55.554Z,651.4
2023-04-02T04:23:57.667Z,650.9
2023-04-02T04:24:59.733Z,651.2
2023-04-02T04:26:01.802Z,650.8
2023-04-02T04:27:03.717Z,650.6
2023-04-02T04:28:06.295Z,650.6
2023-04-02T04:29:08.374Z,650.7
2023-04-02T04:30:10.050Z,650.9
2023-04-02T04:31:12.112Z,650.6
2023-04-02T04:32:14.819Z,650.1
2023-04-02T04:33:16.977Z,649.5
2023-04-02T04:34:18.893Z,650
2023-04-02T04:35:20.771Z,649.9
2023-04-02T04:36:22.280Z,649.5
2023-04-02T04:37:24.161Z,649.6
2023-04-02T04:38:25.863Z,649.6
2023-04-02T04:39:27.816Z,649.2
2023-04-02T04:40:29.745Z,649.4
2023-04-02T04:41:31.844Z,649.1
2023-04-02T04:42:33.953Z,649.3
2023-04-02T04:43:36.144Z,649
2023-04-02T04:44:38.214Z,648.8
2023-04-02T04:45:40.250Z,649.2
2023-04-02T04:46:42.377Z,648.9
2023-04-02T04:47:44.758Z,649.1
2023-04-02T04:48:46.879Z,648.9
2023-04-02T04:49:49.032Z,648.8
2023-04-02T04:50:50.963Z,648.5
2023-04-02T04:51:53.092Z,648.8
2023-04-02T04:52:54.970Z,648.5
2023-04-02T04:53:56.942Z,648.5
2023-04-02T04:54:58.676Z,648.4
2023-04-02T04:57:05.915Z,648.2
2023-04-02T04:58:08.054Z,648.8
2023-04-02T04:59:10.289Z,648.2
2023-04-02T05:00:12.397Z,648.3
2023-04-02T05:01:14.315Z,648.3
2023-04-02T05:02:16.246Z,647.6
2023-04-02T05:03:18.409Z,648
2023-04-02T05:04:20.781Z,647.7
2023-04-02T05:05:23.014Z,647.6
2023-04-02T05:06:25.184Z,647.3
2023-04-02T05:07:27.089Z,647.3
2023-04-02T05:08:29.204Z,647.3
2023-04-02T05:09:31.359Z,646.9
2023-04-02T05:10:33.509Z,646.6
2023-04-02T05:11:35.380Z,646.8
2023-04-02T05:12:37.507Z,646.7
2023-04-02T05:13:39.675Z,646.5
2023-04-02T05:14:41.905Z,646.4
2023-04-02T05:15:44.252Z,646
2023-04-02T05:16:46.374Z,646
2023-04-02T05:17:48.795Z,645.5
2023-04-02T05:18:50.987Z,645.2
2023-04-02T05:19:53.108Z,645.5
2023-04-02T05:20:55.242Z,645.1
2023-04-02T05:21:57.384Z,645.1
2023-04-02T05:22:59.292Z,645.1
2023-04-02T05:24:01.169Z,644.8
2023-04-02T05:25:03.084Z,645
2023-04-02T05:26:05.049Z,644.8
2023-04-02T05:27:07.011Z,644.7
2023-04-02T05:28:08.934Z,644.7
2023-04-02T05:29:10.656Z,644.6
2023-04-02T05:30:12.894Z,645
2023-04-02T05:31:15.027Z,644.8
2023-04-02T05:32:17.011Z,644.6
2023-04-02T05:33:19.134Z,644.7
2023-04-02T05:34:21.228Z,644.7
2023-04-02T05:35:23.352Z,644.2
2023-04-02T05:36:25.764Z,644.1
2023-04-02T05:37:27.770Z,644.2
2023-04-02T05:38:29.658Z,643.7
2023-04-02T05:39:31.737Z,643.6
2023-04-02T05:40:34.248Z,643.4
2023-04-02T05:41:36.702Z,643.5
2023-04-02T05:42:38.700Z,643.4
2023-04-02T05:43:40.604Z,643.2
2023-04-02T05:44:42.507Z,643
2023-04-02T05:45:44.542Z,643.1
2023-04-02T05:46:46.719Z,642.9
2023-04-02T05:47:49.186Z,642.9
2023-04-02T05:48:51.151Z,643.4
2023-04-02T05:49:53.320Z,643
2023-04-02T05:50:55.448Z,642.6
2023-04-02T05:51:59.233Z,642.5
2023-04-02T05:53:01.355Z,642.2
2023-04-02T05:54:03.308Z,642.2
2023-04-02T05:55:05.433Z,642
2023-04-02T05:56:07.414Z,641.7
2023-04-02T05:57:09.746Z,641.8
2023-04-02T05:59:16.968Z,641.3
2023-04-02T06:00:19.100Z,641.4
2023-04-02T06:01:21.145Z,641
2023-04-02T06:02:23.683Z,641.1
2023-04-02T06:03:26.523Z,641
2023-04-02T06:04:28.619Z,641.3
2023-04-02T06:05:30.579Z,641
2023-04-02T06:06:32.515Z,640.8
2023-04-02T06:07:34.608Z,640.7
2023-04-02T06:08:36.798Z,640.9
2023-04-02T06:09:38.966Z,641.3
2023-04-02T06:10:40.874Z,641.4
2023-04-02T06:11:42.792Z,640.8
2023-04-02T06:12:44.987Z,640.8
2023-04-02T06:13:47.112Z,640.8
2023-04-02T06:14:49.213Z,640.3
2023-04-02T06:15:51.191Z,640.4
2023-04-02T06:16:53.709Z,640.5
2023-04-02T06:17:56.160Z,640.4
2023-04-02T06:18:58.300Z,640.1
2023-04-02T06:20:00.265Z,640.3
2023-04-02T06:21:02.404Z,640.1
2023-04-02T06:22:04.313Z,640.6
2023-04-02T06:23:06.437Z,640.6
2023-04-02T06:24:08.626Z,640.3
2023-04-02T06:25:10.850Z,640
2023-04-02T06:26:12.986Z,640.3
2023-04-02T06:27:15.138Z,640.2
2023-04-02T06:28:17.276Z,639.9
2023-04-02T06:29:19.435Z,639.9
2023-04-02T06:30:21.601Z,639.6
2023-04-02T06:31:23.890Z,639.9
2023-04-02T06:32:26.334Z,639.3
2023-04-02T06:33:28.527Z,639.4
2023-04-02T06:34:30.267Z,639.3
2023-04-02T06:35:32.199Z,639.3
2023-04-02T06:36:34.329Z,639.2
2023-04-02T06:37:36.282Z,639
2023-04-02T06:38:38.404Z,639.1
2023-04-02T06:39:40.340Z,638.5
2023-04-02T06:40:42.251Z,639
2023-04-02T06:41:44.173Z,638.7
2023-04-02T06:42:46.325Z,638.2
2023-04-02T06:43:48.471Z,638.1
2023-04-02T06:44:50.600Z,638.7
2023-04-02T06:45:52.983Z,637.7
2023-04-02T06:46:55.134Z,638.1
2023-04-02T06:47:57.574Z,637.8
2023-04-02T06:48:59.521Z,637.6
2023-04-02T06:50:01.685Z,637.2
2023-04-02T06:51:03.720Z,637.5
2023-04-02T06:52:05.838Z,637.3
2023-04-02T06:53:07.973Z,637.3
2023-04-02T06:54:09.884Z,636.8
2023-04-02T06:55:11.655Z,636.7
2023-04-02T06:56:13.928Z,636.4
2023-04-02T06:57:16.256Z,636.4
2023-04-02T06:58:18.395Z,636.3
2023-04-02T06:59:20.663Z,635.9
2023-04-02T07:00:22.788Z,636
2023-04-02T07:01:24.892Z,635.9
2023-04-02T07:02:27.260Z,635.9
2023-04-02T07:03:29.575Z,635.8
2023-04-02T07:04:31.852Z,635.5
2023-04-02T07:05:35.047Z,635.4
2023-04-02T07:06:37.091Z,635.7
2023-04-02T07:07:38.821Z,635.2
2023-04-02T07:08:40.970Z,635.2
2023-04-02T07:09:42.766Z,635.1
2023-04-02T07:10:44.953Z,634.9
2023-04-02T07:11:47.062Z,634.9
2023-04-02T07:12:49.231Z,635
2023-04-02T07:13:51.227Z,634.9
2023-04-02T07:14:53.360Z,634.4
2023-04-02T07:15:56.665Z,634.9
2023-04-02T07:16:59.217Z,634.5
2023-04-02T07:18:01.428Z,634.7
2023-04-02T07:19:03.674Z,634.5
2023-04-02T07:20:05.781Z,634.5
2023-04-02T07:21:07.901Z,634.7
2023-04-02T07:22:10.025Z,634.3
2023-04-02T07:23:12.148Z,634.2
2023-04-02T07:24:14.273Z,633.9
2023-04-02T07:25:16.420Z,634
2023-04-02T07:26:18.529Z,634.1
2023-04-02T07:27:20.454Z,633.7
2023-04-02T07:28:24.613Z,633.5
2023-04-02T07:29:26.545Z,633.6
2023-04-02T07:30:28.686Z,633.7
2023-04-02T07:31:31.156Z,633.6
2023-04-02T07:32:33.509Z,633.5
2023-04-02T07:33:35.644Z,633.6
2023-04-02T07:34:37.931Z,633.6
2023-04-02T07:35:40.535Z,633.3
2023-04-02T07:36:42.691Z,633.4
2023-04-02T07:37:44.796Z,632.9
2023-04-02T07:38:47.053Z,633.3
2023-04-02T07:39:49.142Z,633.1
2023-04-02T07:40:51.071Z,632.8
2023-04-02T07:41:53.205Z,632.7
2023-04-02T07:42:55.333Z,632.5
2023-04-02T07:43:57.337Z,632.2
2023-04-02T07:44:59.465Z,632.5
2023-04-02T07:46:01.576Z,632.1
2023-04-02T07:47:04.103Z,632.4
2023-04-02T07:48:06.483Z,632
2023-04-02T07:49:08.793Z,632.2
2023-04-02T07:50:11.066Z,631.9
2023-04-02T07:51:12.788Z,631.6
2023-04-02T07:52:14.864Z,631.6
2023-04-02T07:53:17.000Z,632
2023-04-02T07:54:19.112Z,631.8
2023-04-02T07:55:21.224Z,631.5
2023-04-02T07:56:23.324Z,631.4
2023-04-02T07:57:25.458Z,631.4
2023-04-02T07:58:27.379Z,631
2023-04-02T07:59:29.554Z,631
2023-04-02T08:00:31.787Z,630.8
2023-04-02T08:01:33.945Z,630.6
2023-04-02T08:02:36.352Z,630.6
2023-04-02T08:03:39.231Z,630.4
2023-04-02T08:04:41.436Z,630.3
2023-04-02T08:05:43.771Z,630.6
2023-04-02T08:06:45.987Z,630.4
2023-04-02T08:07:53.003Z,630.2
2023-04-02T08:08:54.941Z,630
2023-04-02T08:09:57.048Z,630
2023-04-02T08:10:59.137Z,630.3
2023-04-02T08:12:01.293Z,629.8
2023-04-02T08:13:03.447Z,629.7
2023-04-02T08:14:05.534Z,630
2023-04-02T08:15:07.533Z,629.7
2023-04-02T08:16:09.618Z,629.7
2023-04-02T08:17:11.762Z,629.6
2023-04-02T08:18:13.700Z,629.3
2023-04-02T08:19:15.636Z,629
2023-04-02T08:20:17.800Z,629
2023-04-02T08:21:20.049Z,628.9
2023-04-02T08:22:22.210Z,628.7
2023-04-02T08:23:24.137Z,628.8
2023-04-02T08:24:26.082Z,628.2
2023-04-02T08:25:28.268Z,628.7
2023-04-02T08:26:30.396Z,628.5
2023-04-02T08:27:32.518Z,628.4
2023-04-02T08:28:34.632Z,628.4
2023-04-02T08:29:36.767Z,628
2023-04-02T08:30:38.870Z,628.4
2023-04-02T08:31:40.837Z,628.3
2023-04-02T08:32:43.037Z,628
2023-04-02T08:33:45.193Z,628.1
2023-04-02T08:34:47.293Z,627.6
2023-04-02T08:35:49.695Z,627.8
2023-04-02T08:36:51.932Z,627.9
2023-04-02T08:37:54.051Z,627.7
2023-04-02T08:38:56.159Z,628
2023-04-02T08:39:57.905Z,627.2
2023-04-02T08:41:00.075Z,627.9
2023-04-02T08:42:02.234Z,628
2023-04-02T08:43:04.347Z,628.1
2023-04-02T08:44:06.260Z,628.1
2023-04-02T08:46:13.733Z,627.5
2023-04-02T08:47:15.669Z,627.1
2023-04-02T08:48:17.857Z,627.3
2023-04-02T08:49:19.970Z,627.3
2023-04-02T08:50:22.090Z,626.9
2023-04-02T08:51:24.226Z,627.2
2023-04-02T08:52:26.526Z,626.9
2023-04-02T08:53:28.871Z,626.5
2023-04-02T08:54:31.342Z,626.8
2023-04-02T08:55:34.083Z,626.4
2023-04-02T08:56:36.096Z,626.5
2023-04-02T08:57:38.031Z,626.2
2023-04-02T08:58:39.999Z,626.3
2023-04-02T08:59:42.148Z,626.3
2023-04-02T09:00:44.240Z,626.3
2023-04-02T09:01:46.481Z,626.5
2023-04-02T09:02:48.883Z,626.6
2023-04-02T09:03:51.184Z,626.4
2023-04-02T09:04:53.612Z,625.9
2023-04-02T09:05:55.762Z,626.5
2023-04-02T09:06:57.867Z,626.2
2023-04-02T09:08:00.090Z,625.8
2023-04-02T09:09:02.223Z,625.8
2023-04-02T09:10:04.133Z,625.6
2023-04-02T09:11:06.285Z,625.7
2023-04-02T09:12:08.404Z,625.9
2023-04-02T09:13:10.488Z,625.8
2023-04-02T09:14:12.811Z,626.1
2023-04-02T09:15:14.971Z,625.7
2023-04-02T09:16:17.144Z,625.6
2023-04-02T09:17:19.294Z,625.3
2023-04-02T09:18:21.239Z,624.6
2023-04-02T09:19:23.742Z,625.9
2023-04-02T09:20:26.047Z,625.3
2023-04-02T09:21:27.940Z,625.2
2023-04-02T09:22:30.168Z,625.4
2023-04-02T09:23:32.216Z,624.9
2023-04-02T09:24:34.461Z,625
2023-04-02T09:25:37.820Z,624.5
2023-04-02T09:26:39.935Z,624.4
2023-04-02T09:27:41.823Z,624.5
2023-04-02T09:28:43.727Z,624.3
2023-04-02T09:29:45.679Z,624.3
2023-04-02T09:30:47.769Z,624
2023-04-02T09:31:49.807Z,623.8
2023-04-02T09:32:52.073Z,624.2
2023-04-02T09:33:53.638Z,623.8
2023-04-02T09:34:55.752Z,623.8
2023-04-02T09:35:58.032Z,624.1
2023-04-02T09:36:59.981Z,624
2023-04-02T09:38:02.155Z,623.6
2023-04-02T09:39:04.369Z,623.9
2023-04-02T09:40:06.451Z,623.4
2023-04-02T09:41:08.594Z,623.5
2023-04-02T09:42:10.484Z,623.5
2023-04-02T09:43:12.389Z,623.3
2023-04-02T09:44:14.546Z,623.2
2023-04-02T09:45:16.265Z,623.4
2023-04-02T09:46:18.495Z,622.9
2023-04-02T09:47:20.399Z,623.4
2023-04-02T09:48:22.473Z,623
2023-04-02T09:49:24.606Z,623.3
2023-04-02T09:50:26.742Z,623.2
2023-04-02T09:51:28.861Z,623.1
2023-04-02T09:52:30.964Z,623.2
2023-04-02T09:53:32.688Z,623.2
2023-04-02T09:54:34.877Z,623.2
2023-04-02T09:55:38.249Z,622.9
2023-04-02T09:56:40.193Z,623.1
2023-04-02T09:57:41.883Z,623
2023-04-02T09:58:43.584Z,623
2023-04-02T09:59:45.719Z,622.8
2023-04-02T10:00:48.900Z,622.9
2023-04-02T10:01:50.845Z,622.7
2023-04-02T10:02:53.170Z,622.9
2023-04-02T10:03:55.475Z,623
2023-04-02T10:04:57.420Z,622.8
2023-04-02T10:05:59.568Z,622.2
2023-04-02T10:07:01.703Z,622.7
2023-04-02T10:08:03.652Z,622.2
2023-04-02T10:09:05.749Z,622.3
2023-04-02T10:10:08.041Z,622.7
2023-04-02T10:11:10.153Z,622.6
2023-04-02T10:12:12.045Z,622.7
2023-04-02T10:13:14.144Z,623
2023-04-02T10:14:16.233Z,622.5
2023-04-02T10:15:18.119Z,622.2
2023-04-02T10:16:20.598Z,622
2023-04-02T10:17:22.643Z,622.4
2023-04-02T10:18:24.600Z,622.6
2023-04-02T10:19:26.750Z,622.2
2023-04-02T10:21:35.615Z,622.6
2023-04-02T10:22:37.546Z,622.4
2023-04-02T10:23:39.725Z,622.3
2023-04-02T10:24:41.803Z,622.9
2023-04-02T10:25:44.023Z,622.2
2023-04-02T10:26:45.943Z,621.7
2023-04-02T10:27:48.038Z,622
2023-04-02T10:28:50.149Z,622.3
2023-04-02T10:29:52.243Z,622.4
2023-04-02T10:30:54.386Z,622.5
2023-04-02T10:31:56.507Z,622
2023-04-02T10:32:58.707Z,621.7
2023-04-02T10:34:00.840Z,622.4
2023-04-02T10:35:02.981Z,622.3
2023-04-02T10:36:05.215Z,622.8
2023-04-02T10:37:07.548Z,622.5
2023-04-02T10:38:09.908Z,622.1
2023-04-02T10:39:12.019Z,622.7
2023-04-02T10:40:14.175Z,622.7
2023-04-02T10:41:16.408Z,622.8
2023-04-02T10:42:18.526Z,622.5
2023-04-02T10:43:20.418Z,622.7
2023-04-02T10:44:22.666Z,622.2
2023-04-02T10:45:24.802Z,622.7
2023-04-02T10:46:27.553Z,622
2023-04-02T10:47:29.735Z,622.4
2023-04-02T10:48:31.674Z,622
2023-04-02T10:49:33.819Z,622
2023-04-02T10:50:35.982Z,621.9
2023-04-02T10:51:38.163Z,622
2023-04-02T10:52:40.304Z,621.9
2023-04-02T10:53:42.443Z,621.6
2023-04-02T10:54:44.573Z,622.2
2023-04-02T10:55:46.714Z,621.8
2023-04-02T10:57:53.973Z,621.2
2023-04-02T11:00:01.322Z,620.6
2023-04-02T11:01:03.310Z,620.8
2023-04-02T11:02:05.302Z,621.1
2023-04-02T11:03:08.068Z,621
2023-04-02T11:04:10.261Z,620.1
2023-04-02T11:05:12.593Z,620.8
2023-04-02T11:06:14.832Z,620.5
2023-04-02T11:07:16.728Z,620.7
2023-04-02T11:08:18.678Z,620.8
2023-04-02T11:09:20.390Z,620.7
2023-04-02T11:10:22.552Z,620.3
2023-04-02T11:11:24.459Z,620.7
2023-04-02T11:12:26.594Z,620.1
2023-04-02T11:13:28.821Z,620.5
2023-04-02T11:14:30.744Z,620.4
2023-04-02T11:15:32.862Z,620.1
2023-04-02T11:17:43.302Z,619.8
2023-04-02T11:18:45.484Z,620
2023-04-02T11:19:47.461Z,619.7
2023-04-02T11:20:49.575Z,619.2
2023-04-02T11:22:56.632Z,618.9
2023-04-02T11:23:58.875Z,619.2
2023-04-02T11:25:00.848Z,618.6
2023-04-02T11:26:02.746Z,618.4
2023-04-02T11:27:04.456Z,618.6
2023-04-02T11:28:06.590Z,618.4
2023-04-02T11:29:08.389Z,618.6
2023-04-02T11:30:10.684Z,618.5
2023-04-02T11:31:13.008Z,618.7
2023-04-02T11:32:14.926Z,618.5
2023-04-02T11:34:22.033Z,618.5
2023-04-02T11:35:24.122Z,618.8
2023-04-02T11:36:26.348Z,618.9
2023-04-02T11:37:28.227Z,617.8
2023-04-02T11:38:29.977Z,618.5
2023-04-02T11:39:32.080Z,618.8
2023-04-02T11:40:34.165Z,618.7
2023-04-02T11:41:36.057Z,618.5
2023-04-02T11:42:38.033Z,618.1
2023-04-02T11:43:39.773Z,618.4
2023-04-02T11:44:41.942Z,618.6
2023-04-02T11:46:49.211Z,618.3
2023-04-02T11:47:51.925Z,618.5
2023-04-02T11:48:54.284Z,618.5
2023-04-02T11:49:56.954Z,618.4
2023-04-02T11:50:59.633Z,618.4
2023-04-02T11:53:06.789Z,618.4
2023-04-02T11:54:08.955Z,618.4
2023-04-02T11:55:10.891Z,618.2
2023-04-02T11:56:12.806Z,617.9
2023-04-02T11:57:15.147Z,617.3
2023-04-02T11:58:17.083Z,617.8
2023-04-02T11:59:19.059Z,617.9
2023-04-02T12:00:21.303Z,618
2023-04-02T12:01:23.289Z,617.9
2023-04-02T12:02:25.940Z,617.6
2023-04-02T12:03:28.054Z,617.7
2023-04-02T12:04:29.761Z,617.5
2023-04-02T12:05:31.661Z,617.7
2023-04-02T12:06:33.805Z,617.7
2023-04-02T12:07:35.875Z,617.3
2023-04-02T12:09:42.777Z,617.2
2023-04-02T12:10:44.916Z,617.2
2023-04-02T12:11:46.882Z,617.8
2023-04-02T12:12:49.002Z,617.2
2023-04-02T12:13:51.125Z,617.6
2023-04-02T12:14:53.104Z,617.2
2023-04-02T12:15:55.527Z,617
2023-04-02T12:16:57.907Z,617.4
2023-04-02T12:17:59.984Z,617.1
2023-04-02T12:19:01.946Z,616.7
2023-04-02T12:21:08.626Z,617.2
2023-04-02T12:22:10.520Z,616.7
2023-04-02T12:23:12.632Z,616.1
2023-04-02T12:24:14.361Z,616.8
2023-04-02T12:25:16.468Z,616.6
2023-04-02T12:26:18.378Z,616.5
2023-04-02T12:27:20.291Z,616.7
2023-04-02T12:28:22.426Z,616.4
2023-04-02T12:29:24.102Z,617
2023-04-02T12:30:26.193Z,616.8
2023-04-02T12:31:29.023Z,615.8
2023-04-02T12:32:32.211Z,616
2023-04-02T12:33:34.477Z,616.5
2023-04-02T12:34:36.497Z,615.9
2023-04-02T12:35:38.488Z,615.8
2023-04-02T12:36:40.679Z,616.1
2023-04-02T12:37:42.612Z,615.9
2023-04-02T12:38:44.714Z,616.4
2023-04-02T12:39:46.841Z,615.9
2023-04-02T12:40:48.937Z,615.9
2023-04-02T12:41:50.934Z,616
2023-04-02T12:42:53.035Z,615.8
2023-04-02T12:43:54.916Z,615.5
2023-04-02T12:44:57.015Z,615.7
2023-04-02T12:45:58.720Z,615.7
2023-04-02T12:47:01.047Z,615.4
2023-04-02T12:48:03.270Z,615.8
2023-04-02T12:49:05.467Z,615.6
2023-04-02T12:50:07.707Z,615.9
2023-04-02T12:51:09.834Z,616
2023-04-02T12:52:11.563Z,615.8
2023-04-02T12:53:13.517Z,615.9
2023-04-02T12:54:15.621Z,615.6
2023-04-02T12:55:17.723Z,615.5
2023-04-02T12:56:19.811Z,615.4
2023-04-02T12:57:22.032Z,615.9
2023-04-02T12:58:24.018Z,615.3
2023-04-02T12:59:26.171Z,615.3
2023-04-02T13:00:28.256Z,615.2
2023-04-02T13:01:30.583Z,614.8
2023-04-02T13:02:32.785Z,614.9
2023-04-02T13:03:35.072Z,614.7
2023-04-02T13:04:37.182Z,614.9
2023-04-02T13:05:39.330Z,614.7
2023-04-02T13:06:41.051Z,614.7
2023-04-02T13:07:43.187Z,614.8
2023-04-02T13:08:45.289Z,614.3
2023-04-02T13:09:47.096Z,614.3
2023-04-02T13:10:48.604Z,614.1
2023-04-02T13:11:50.709Z,614.5
2023-04-02T13:12:52.665Z,614.1
2023-04-02T13:13:54.779Z,614.4
2023-04-02T13:14:56.677Z,614.5
2023-04-02T13:15:58.967Z,614.4
2023-04-02T13:17:01.087Z,614.1
2023-04-02T13:18:03.565Z,614.5
2023-04-02T13:19:05.826Z,614.2
2023-04-02T13:20:07.814Z,614.1
2023-04-02T13:21:09.740Z,614.1
2023-04-02T13:22:11.833Z,614.1
2023-04-02T13:23:13.932Z,614.2
2023-04-02T13:24:15.818Z,613.9
2023-04-02T13:25:17.734Z,613.9
2023-04-02T13:26:19.880Z,613.8
2023-04-02T13:27:21.612Z,614
2023-04-02T13:28:23.546Z,614.2
2023-04-02T13:29:25.704Z,613.5
2023-04-02T13:30:27.517Z,613.8
2023-04-02T13:31:29.562Z,613.3
2023-04-02T13:32:31.698Z,613.5
2023-04-02T13:33:33.728Z,613.4
2023-04-02T13:34:35.679Z,613.4
2023-04-02T13:35:37.793Z,613.4
2023-04-02T13:36:39.920Z,612.8
2023-04-02T13:37:42.092Z,613.6
2023-04-02T13:38:43.848Z,613
2023-04-02T13:39:45.763Z,613.1